sensor_id;sensor_type;location;lat;lon;timestamp;P1;durP1;ratioP1;P2;durP2;ratioP2
12120;SDS011;6124;59.460;17.908;2023-04-03T00:01:50;6.53;;;1.60;;
12120;SDS011;6124;59.460;17.908;2023-04-03T00:04:17;6.47;;;1.80;;
12120;SDS011;6124;59.460;17.908;2023-04-03T00:06:44;5.03;;;1.70;;
12120;SDS011;6124;59.460;17.908;2023-04-03T00:09:13;11.00;;;2.00;;
12120;SDS011;6124;59.460;17.908;2023-04-03T00:11:40;8.63;;;1.73;;
12120;SDS011;6124;59.460;17.908;2023-04-03T00:14:07;11.70;;;1.87;;
12120;SDS011;6124;59.460;17.908;2023-04-03T00:16:35;5.83;;;1.60;;
12120;SDS011;6124;59.460;17.908;2023-04-03T00:19:02;4.77;;;1.83;;
12120;SDS011;6124;59.460;17.908;2023-04-03T00:21:30;7.63;;;2.07;;
12120;SDS011;6124;59.460;17.908;2023-04-03T00:23:57;6.43;;;1.63;;
12120;SDS011;6124;59.460;17.908;2023-04-03T00:26:26;5.57;;;1.50;;
12120;SDS011;6124;59.460;17.908;2023-04-03T00:28:53;6.20;;;1.73;;
12120;SDS011;6124;59.460;17.908;2023-04-03T00:31:21;7.33;;;1.40;;
12120;SDS011;6124;59.460;17.908;2023-04-03T00:33:48;4.80;;;1.50;;
12120;SDS011;6124;59.460;17.908;2023-04-03T00:36:16;6.03;;;1.40;;
12120;SDS011;6124;59.460;17.908;2023-04-03T00:38:44;7.80;;;1.80;;
12120;SDS011;6124;59.460;17.908;2023-04-03T00:41:11;7.13;;;1.80;;
12120;SDS011;6124;59.460;17.908;2023-04-03T00:43:40;4.83;;;1.93;;
12120;SDS011;6124;59.460;17.908;2023-04-03T00:46:07;5.67;;;1.53;;
12120;SDS011;6124;59.460;17.908;2023-04-03T00:48:35;6.47;;;1.80;;
12120;SDS011;6124;59.460;17.908;2023-04-03T00:51:03;3.80;;;1.40;;
12120;SDS011;6124;59.460;17.908;2023-04-03T00:53:33;7.90;;;2.00;;
12120;SDS011;6124;59.460;17.908;2023-04-03T00:56:02;7.43;;;1.67;;
12120;SDS011;6124;59.460;17.908;2023-04-03T00:58:35;5.33;;;1.43;;
12120;SDS011;6124;59.460;17.908;2023-04-03T01:01:06;3.90;;;1.50;;
12120;SDS011;6124;59.460;17.908;2023-04-03T01:03:35;5.60;;;1.50;;
12120;SDS011;6124;59.460;17.908;2023-04-03T01:06:02;4.33;;;1.60;;
12120;SDS011;6124;59.460;17.908;2023-04-03T01:08:30;7.43;;;2.43;;
12120;SDS011;6124;59.460;17.908;2023-04-03T01:10:58;4.93;;;1.43;;
12120;SDS011;6124;59.460;17.908;2023-04-03T01:13:26;6.50;;;1.50;;
12120;SDS011;6124;59.460;17.908;2023-04-03T01:15:54;5.87;;;1.30;;
12120;SDS011;6124;59.460;17.908;2023-04-03T01:18:22;8.97;;;1.70;;
12120;SDS011;6124;59.460;17.908;2023-04-03T01:23:38;9.13;;;1.90;;
12120;SDS011;6124;59.460;17.908;2023-04-03T01:26:09;7.63;;;1.40;;
12120;SDS011;6124;59.460;17.908;2023-04-03T01:28:37;3.43;;;1.43;;
12120;SDS011;6124;59.460;17.908;2023-04-03T01:31:08;4.20;;;1.47;;
12120;SDS011;6124;59.460;17.908;2023-04-03T01:33:39;6.43;;;1.83;;
12120;SDS011;6124;59.460;17.908;2023-04-03T01:36:06;5.60;;;1.47;;
12120;SDS011;6124;59.460;17.908;2023-04-03T01:38:34;7.67;;;2.27;;
12120;SDS011;6124;59.460;17.908;2023-04-03T01:41:02;6.43;;;1.77;;
12120;SDS011;6124;59.460;17.908;2023-04-03T01:43:29;6.93;;;1.67;;
12120;SDS011;6124;59.460;17.908;2023-04-03T01:45:56;4.20;;;1.40;;
12120;SDS011;6124;59.460;17.908;2023-04-03T01:48:24;6.23;;;2.03;;
12120;SDS011;6124;59.460;17.908;2023-04-03T01:50:53;6.57;;;1.50;;
12120;SDS011;6124;59.460;17.908;2023-04-03T01:53:20;8.40;;;1.70;;
12120;SDS011;6124;59.460;17.908;2023-04-03T01:55:48;7.03;;;1.73;;
12120;SDS011;6124;59.460;17.908;2023-04-03T01:58:15;5.53;;;1.50;;
12120;SDS011;6124;59.460;17.908;2023-04-03T02:00:43;6.10;;;1.83;;
12120;SDS011;6124;59.460;17.908;2023-04-03T02:03:10;8.87;;;1.87;;
12120;SDS011;6124;59.460;17.908;2023-04-03T02:05:37;5.43;;;1.63;;
12120;SDS011;6124;59.460;17.908;2023-04-03T02:08:06;6.70;;;1.80;;
12120;SDS011;6124;59.460;17.908;2023-04-03T02:10:33;7.30;;;2.00;;
12120;SDS011;6124;59.460;17.908;2023-04-03T02:13:01;6.27;;;1.67;;
12120;SDS011;6124;59.460;17.908;2023-04-03T02:15:28;7.23;;;1.97;;
12120;SDS011;6124;59.460;17.908;2023-04-03T02:17:56;6.03;;;1.70;;
12120;SDS011;6124;59.460;17.908;2023-04-03T02:20:23;5.43;;;2.13;;
12120;SDS011;6124;59.460;17.908;2023-04-03T02:22:51;7.10;;;2.37;;
12120;SDS011;6124;59.460;17.908;2023-04-03T02:25:20;6.37;;;1.80;;
12120;SDS011;6124;59.460;17.908;2023-04-03T02:27:47;5.33;;;1.63;;
12120;SDS011;6124;59.460;17.908;2023-04-03T02:30:14;9.57;;;1.60;;
12120;SDS011;6124;59.460;17.908;2023-04-03T02:32:42;7.40;;;1.77;;
12120;SDS011;6124;59.460;17.908;2023-04-03T02:35:11;5.63;;;1.50;;
12120;SDS011;6124;59.460;17.908;2023-04-03T02:37:38;6.10;;;1.30;;
12120;SDS011;6124;59.460;17.908;2023-04-03T02:40:06;5.20;;;1.40;;
12120;SDS011;6124;59.460;17.908;2023-04-03T02:42:35;5.23;;;1.70;;
12120;SDS011;6124;59.460;17.908;2023-04-03T02:45:03;5.33;;;1.60;;
12120;SDS011;6124;59.460;17.908;2023-04-03T02:47:31;4.80;;;1.77;;
12120;SDS011;6124;59.460;17.908;2023-04-03T02:49:58;6.77;;;1.37;;
12120;SDS011;6124;59.460;17.908;2023-04-03T02:52:25;6.70;;;1.67;;
12120;SDS011;6124;59.460;17.908;2023-04-03T02:54:53;3.60;;;1.53;;
12120;SDS011;6124;59.460;17.908;2023-04-03T02:57:20;4.40;;;1.70;;
12120;SDS011;6124;59.460;17.908;2023-04-03T02:59:49;4.97;;;1.33;;
12120;SDS011;6124;59.460;17.908;2023-04-03T03:02:16;6.23;;;1.60;;
12120;SDS011;6124;59.460;17.908;2023-04-03T03:04:43;5.10;;;1.50;;
12120;SDS011;6124;59.460;17.908;2023-04-03T03:07:11;5.47;;;1.37;;
12120;SDS011;6124;59.460;17.908;2023-04-03T03:09:38;5.10;;;1.50;;
12120;SDS011;6124;59.460;17.908;2023-04-03T03:12:05;4.00;;;1.53;;
12120;SDS011;6124;59.460;17.908;2023-04-03T03:14:33;7.03;;;1.77;;
12120;SDS011;6124;59.460;17.908;2023-04-03T03:17:01;3.47;;;1.50;;
12120;SDS011;6124;59.460;17.908;2023-04-03T03:19:29;8.27;;;1.90;;
12120;SDS011;6124;59.460;17.908;2023-04-03T03:21:56;2.23;;;0.97;;
12120;SDS011;6124;59.460;17.908;2023-04-03T03:24:24;3.60;;;1.43;;
12120;SDS011;6124;59.460;17.908;2023-04-03T03:26:51;7.27;;;1.70;;
12120;SDS011;6124;59.460;17.908;2023-04-03T03:29:19;5.37;;;1.67;;
12120;SDS011;6124;59.460;17.908;2023-04-03T03:31:46;3.67;;;1.33;;
12120;SDS011;6124;59.460;17.908;2023-04-03T03:34:15;9.53;;;1.50;;
12120;SDS011;6124;59.460;17.908;2023-04-03T03:36:42;2.87;;;1.50;;
12120;SDS011;6124;59.460;17.908;2023-04-03T03:39:09;5.13;;;1.53;;
12120;SDS011;6124;59.460;17.908;2023-04-03T03:41:37;2.80;;;1.53;;
12120;SDS011;6124;59.460;17.908;2023-04-03T03:44:04;5.83;;;1.60;;
12120;SDS011;6124;59.460;17.908;2023-04-03T03:46:31;7.20;;;1.43;;
12120;SDS011;6124;59.460;17.908;2023-04-03T03:48:59;7.47;;;2.00;;
12120;SDS011;6124;59.460;17.908;2023-04-03T03:51:27;4.13;;;1.30;;
12120;SDS011;6124;59.460;17.908;2023-04-03T03:53:55;5.77;;;1.30;;
12120;SDS011;6124;59.460;17.908;2023-04-03T03:56:22;4.10;;;1.50;;
12120;SDS011;6124;59.460;17.908;2023-04-03T03:58:50;3.97;;;1.30;;
12120;SDS011;6124;59.460;17.908;2023-04-03T04:01:17;8.73;;;1.97;;
12120;SDS011;6124;59.460;17.908;2023-04-03T04:03:45;5.33;;;1.50;;
12120;SDS011;6124;59.460;17.908;2023-04-03T04:06:12;4.77;;;1.50;;
12120;SDS011;6124;59.460;17.908;2023-04-03T04:08:41;5.73;;;2.10;;
12120;SDS011;6124;59.460;17.908;2023-04-03T04:11:08;8.50;;;1.50;;
12120;SDS011;6124;59.460;17.908;2023-04-03T04:13:36;5.70;;;1.90;;
12120;SDS011;6124;59.460;17.908;2023-04-03T04:16:03;7.50;;;1.50;;
12120;SDS011;6124;59.460;17.908;2023-04-03T04:18:31;8.33;;;2.30;;
12120;SDS011;6124;59.460;17.908;2023-04-03T04:20:58;3.83;;;1.50;;
12120;SDS011;6124;59.460;17.908;2023-04-03T04:23:26;5.63;;;1.63;;
12120;SDS011;6124;59.460;17.908;2023-04-03T04:25:54;7.00;;;1.87;;
12120;SDS011;6124;59.460;17.908;2023-04-03T04:28:22;5.63;;;1.50;;
12120;SDS011;6124;59.460;17.908;2023-04-03T04:30:49;8.83;;;2.10;;
12120;SDS011;6124;59.460;17.908;2023-04-03T04:33:16;4.03;;;1.60;;
12120;SDS011;6124;59.460;17.908;2023-04-03T04:35:46;8.00;;;1.60;;
12120;SDS011;6124;59.460;17.908;2023-04-03T04:38:13;5.97;;;1.90;;
12120;SDS011;6124;59.460;17.908;2023-04-03T04:40:41;6.77;;;1.70;;
12120;SDS011;6124;59.460;17.908;2023-04-03T04:43:10;7.20;;;1.70;;
12120;SDS011;6124;59.460;17.908;2023-04-03T04:45:39;7.87;;;1.60;;
12120;SDS011;6124;59.460;17.908;2023-04-03T04:48:07;4.43;;;1.50;;
12120;SDS011;6124;59.460;17.908;2023-04-03T04:50:34;3.27;;;1.20;;
12120;SDS011;6124;59.460;17.908;2023-04-03T04:53:02;6.23;;;1.53;;
12120;SDS011;6124;59.460;17.908;2023-04-03T04:55:29;4.43;;;1.70;;
12120;SDS011;6124;59.460;17.908;2023-04-03T04:57:56;5.97;;;1.50;;
12120;SDS011;6124;59.460;17.908;2023-04-03T05:00:25;6.70;;;1.50;;
12120;SDS011;6124;59.460;17.908;2023-04-03T05:02:52;4.27;;;1.70;;
12120;SDS011;6124;59.460;17.908;2023-04-03T05:05:20;7.73;;;1.63;;
12120;SDS011;6124;59.460;17.908;2023-04-03T05:07:48;6.77;;;1.60;;
12120;SDS011;6124;59.460;17.908;2023-04-03T05:10:15;12.20;;;1.93;;
12120;SDS011;6124;59.460;17.908;2023-04-03T05:12:43;9.23;;;1.70;;
12120;SDS011;6124;59.460;17.908;2023-04-03T05:15:10;6.13;;;1.83;;
12120;SDS011;6124;59.460;17.908;2023-04-03T05:17:39;4.83;;;1.80;;
12120;SDS011;6124;59.460;17.908;2023-04-03T05:20:06;5.23;;;1.47;;
12120;SDS011;6124;59.460;17.908;2023-04-03T05:22:34;2.33;;;1.50;;
12120;SDS011;6124;59.460;17.908;2023-04-03T05:25:01;2.90;;;1.50;;
12120;SDS011;6124;59.460;17.908;2023-04-03T05:27:28;6.47;;;1.60;;
12120;SDS011;6124;59.460;17.908;2023-04-03T05:29:56;8.07;;;1.73;;
12120;SDS011;6124;59.460;17.908;2023-04-03T05:32:24;6.67;;;1.80;;
12120;SDS011;6124;59.460;17.908;2023-04-03T05:34:54;5.70;;;1.97;;
12120;SDS011;6124;59.460;17.908;2023-04-03T05:37:21;5.00;;;1.97;;
12120;SDS011;6124;59.460;17.908;2023-04-03T05:39:48;6.27;;;1.83;;
12120;SDS011;6124;59.460;17.908;2023-04-03T05:42:16;5.47;;;1.90;;
12120;SDS011;6124;59.460;17.908;2023-04-03T05:44:43;11.53;;;2.30;;
12120;SDS011;6124;59.460;17.908;2023-04-03T05:47:12;8.10;;;2.20;;
12120;SDS011;6124;59.460;17.908;2023-04-03T05:49:39;7.63;;;1.47;;
12120;SDS011;6124;59.460;17.908;2023-04-03T05:52:10;7.53;;;1.93;;
12120;SDS011;6124;59.460;17.908;2023-04-03T05:54:44;6.70;;;2.10;;
12120;SDS011;6124;59.460;17.908;2023-04-03T05:57:13;7.97;;;1.87;;
12120;SDS011;6124;59.460;17.908;2023-04-03T05:59:41;7.37;;;2.03;;
12120;SDS011;6124;59.460;17.908;2023-04-03T06:02:09;6.30;;;2.10;;
12120;SDS011;6124;59.460;17.908;2023-04-03T06:04:37;8.43;;;2.53;;
12120;SDS011;6124;59.460;17.908;2023-04-03T06:07:04;10.27;;;1.97;;
12120;SDS011;6124;59.460;17.908;2023-04-03T06:09:34;5.23;;;1.83;;
12120;SDS011;6124;59.460;17.908;2023-04-03T06:12:01;6.47;;;1.70;;
12120;SDS011;6124;59.460;17.908;2023-04-03T06:14:28;5.50;;;1.83;;
12120;SDS011;6124;59.460;17.908;2023-04-03T06:16:56;5.37;;;1.73;;
12120;SDS011;6124;59.460;17.908;2023-04-03T06:19:23;6.63;;;1.80;;
12120;SDS011;6124;59.460;17.908;2023-04-03T06:21:51;6.60;;;2.07;;
12120;SDS011;6124;59.460;17.908;2023-04-03T06:24:18;4.13;;;1.60;;
12120;SDS011;6124;59.460;17.908;2023-04-03T06:26:50;4.97;;;1.77;;
12120;SDS011;6124;59.460;17.908;2023-04-03T06:29:18;6.30;;;1.90;;
12120;SDS011;6124;59.460;17.908;2023-04-03T06:31:45;5.57;;;1.67;;
12120;SDS011;6124;59.460;17.908;2023-04-03T06:34:13;9.00;;;1.73;;
12120;SDS011;6124;59.460;17.908;2023-04-03T06:36:42;8.77;;;1.80;;
12120;SDS011;6124;59.460;17.908;2023-04-03T06:39:10;7.53;;;1.90;;
12120;SDS011;6124;59.460;17.908;2023-04-03T06:41:40;7.07;;;2.13;;
12120;SDS011;6124;59.460;17.908;2023-04-03T06:44:09;5.70;;;1.73;;
12120;SDS011;6124;59.460;17.908;2023-04-03T06:46:38;6.53;;;1.93;;
12120;SDS011;6124;59.460;17.908;2023-04-03T06:49:05;9.47;;;2.30;;
12120;SDS011;6124;59.460;17.908;2023-04-03T06:51:33;11.57;;;2.10;;
12120;SDS011;6124;59.460;17.908;2023-04-03T06:54:02;6.00;;;2.00;;
12120;SDS011;6124;59.460;17.908;2023-04-03T06:56:30;4.80;;;1.70;;
12120;SDS011;6124;59.460;17.908;2023-04-03T06:58:57;6.33;;;2.30;;
12120;SDS011;6124;59.460;17.908;2023-04-03T07:01:26;11.37;;;2.20;;
12120;SDS011;6124;59.460;17.908;2023-04-03T07:03:55;6.37;;;2.10;;
12120;SDS011;6124;59.460;17.908;2023-04-03T07:06:22;7.47;;;2.20;;
12120;SDS011;6124;59.460;17.908;2023-04-03T07:08:52;9.67;;;1.93;;
12120;SDS011;6124;59.460;17.908;2023-04-03T07:11:19;6.10;;;1.93;;
12120;SDS011;6124;59.460;17.908;2023-04-03T07:13:47;9.10;;;1.80;;
12120;SDS011;6124;59.460;17.908;2023-04-03T07:16:14;5.33;;;1.90;;
12120;SDS011;6124;59.460;17.908;2023-04-03T07:18:43;7.80;;;1.87;;
12120;SDS011;6124;59.460;17.908;2023-04-03T07:21:11;8.10;;;2.20;;
12120;SDS011;6124;59.460;17.908;2023-04-03T07:23:39;4.97;;;2.13;;
12120;SDS011;6124;59.460;17.908;2023-04-03T07:26:06;5.13;;;2.00;;
12120;SDS011;6124;59.460;17.908;2023-04-03T07:28:34;7.37;;;1.80;;
12120;SDS011;6124;59.460;17.908;2023-04-03T07:31:03;3.87;;;1.53;;
12120;SDS011;6124;59.460;17.908;2023-04-03T07:33:33;8.43;;;1.67;;
12120;SDS011;6124;59.460;17.908;2023-04-03T07:36:02;7.50;;;1.77;;
12120;SDS011;6124;59.460;17.908;2023-04-03T07:38:29;8.83;;;2.10;;
12120;SDS011;6124;59.460;17.908;2023-04-03T07:40:57;10.00;;;2.23;;
12120;SDS011;6124;59.460;17.908;2023-04-03T07:43:24;5.33;;;2.00;;
12120;SDS011;6124;59.460;17.908;2023-04-03T07:45:52;8.57;;;2.00;;
12120;SDS011;6124;59.460;17.908;2023-04-03T07:48:20;9.70;;;2.20;;
12120;SDS011;6124;59.460;17.908;2023-04-03T07:50:47;7.07;;;2.00;;
12120;SDS011;6124;59.460;17.908;2023-04-03T07:53:16;10.60;;;2.00;;
12120;SDS011;6124;59.460;17.908;2023-04-03T07:55:45;10.97;;;2.17;;
12120;SDS011;6124;59.460;17.908;2023-04-03T07:58:13;10.60;;;2.20;;
12120;SDS011;6124;59.460;17.908;2023-04-03T08:00:41;5.83;;;1.80;;
12120;SDS011;6124;59.460;17.908;2023-04-03T08:03:10;3.00;;;1.50;;
12120;SDS011;6124;59.460;17.908;2023-04-03T08:05:37;10.50;;;2.10;;
12120;SDS011;6124;59.460;17.908;2023-04-03T08:08:05;8.97;;;1.87;;
12120;SDS011;6124;59.460;17.908;2023-04-03T08:10:34;7.10;;;1.43;;
12120;SDS011;6124;59.460;17.908;2023-04-03T08:13:02;9.17;;;1.80;;
12120;SDS011;6124;59.460;17.908;2023-04-03T08:15:29;5.23;;;1.63;;
12120;SDS011;6124;59.460;17.908;2023-04-03T08:17:57;8.37;;;1.87;;
12120;SDS011;6124;59.460;17.908;2023-04-03T08:20:26;9.47;;;2.57;;
12120;SDS011;6124;59.460;17.908;2023-04-03T08:22:53;6.37;;;1.53;;
12120;SDS011;6124;59.460;17.908;2023-04-03T08:25:21;5.13;;;1.60;;
12120;SDS011;6124;59.460;17.908;2023-04-03T08:27:50;8.30;;;1.90;;
12120;SDS011;6124;59.460;17.908;2023-04-03T08:30:17;8.37;;;2.23;;
12120;SDS011;6124;59.460;17.908;2023-04-03T08:32:44;10.37;;;2.50;;
12120;SDS011;6124;59.460;17.908;2023-04-03T08:35:12;10.53;;;1.90;;
12120;SDS011;6124;59.460;17.908;2023-04-03T08:37:39;6.63;;;1.70;;
12120;SDS011;6124;59.460;17.908;2023-04-03T08:40:07;5.60;;;1.80;;
12120;SDS011;6124;59.460;17.908;2023-04-03T08:42:41;6.63;;;1.63;;
12120;SDS011;6124;59.460;17.908;2023-04-03T08:45:13;6.60;;;2.00;;
12120;SDS011;6124;59.460;17.908;2023-04-03T08:47:43;7.67;;;2.17;;
12120;SDS011;6124;59.460;17.908;2023-04-03T08:50:15;5.87;;;1.67;;
12120;SDS011;6124;59.460;17.908;2023-04-03T08:52:44;5.17;;;1.57;;
12120;SDS011;6124;59.460;17.908;2023-04-03T08:55:17;6.60;;;1.60;;
12120;SDS011;6124;59.460;17.908;2023-04-03T08:57:46;8.13;;;1.50;;
12120;SDS011;6124;59.460;17.908;2023-04-03T09:00:18;4.90;;;1.40;;
12120;SDS011;6124;59.460;17.908;2023-04-03T09:02:46;6.37;;;1.60;;
12120;SDS011;6124;59.460;17.908;2023-04-03T09:05:15;4.20;;;1.40;;
12120;SDS011;6124;59.460;17.908;2023-04-03T09:07:43;8.23;;;1.50;;
12120;SDS011;6124;59.460;17.908;2023-04-03T09:10:12;5.90;;;1.70;;
12120;SDS011;6124;59.460;17.908;2023-04-03T09:12:41;8.87;;;2.20;;
12120;SDS011;6124;59.460;17.908;2023-04-03T09:15:14;8.93;;;1.60;;
12120;SDS011;6124;59.460;17.908;2023-04-03T09:17:49;3.70;;;1.57;;
12120;SDS011;6124;59.460;17.908;2023-04-03T09:20:21;6.17;;;1.53;;
12120;SDS011;6124;59.460;17.908;2023-04-03T09:22:51;3.20;;;1.17;;
12120;SDS011;6124;59.460;17.908;2023-04-03T09:25:20;7.53;;;1.40;;
12120;SDS011;6124;59.460;17.908;2023-04-03T09:27:48;6.43;;;1.90;;
12120;SDS011;6124;59.460;17.908;2023-04-03T09:30:17;5.27;;;1.60;;
12120;SDS011;6124;59.460;17.908;2023-04-03T09:32:45;4.10;;;1.80;;
12120;SDS011;6124;59.460;17.908;2023-04-03T09:35:18;3.90;;;1.63;;
12120;SDS011;6124;59.460;17.908;2023-04-03T09:37:47;6.47;;;1.70;;
12120;SDS011;6124;59.460;17.908;2023-04-03T09:40:27;3.20;;;1.60;;
12120;SDS011;6124;59.460;17.908;2023-04-03T09:42:56;6.17;;;1.40;;
12120;SDS011;6124;59.460;17.908;2023-04-03T09:45:25;6.10;;;1.70;;
12120;SDS011;6124;59.460;17.908;2023-04-03T09:48:04;4.13;;;1.63;;
12120;SDS011;6124;59.460;17.908;2023-04-03T09:50:33;3.77;;;1.50;;
12120;SDS011;6124;59.460;17.908;2023-04-03T09:53:04;4.23;;;1.27;;
12120;SDS011;6124;59.460;17.908;2023-04-03T09:55:32;7.57;;;1.40;;
12120;SDS011;6124;59.460;17.908;2023-04-03T09:58:11;5.70;;;1.63;;
12120;SDS011;6124;59.460;17.908;2023-04-03T10:00:53;2.67;;;1.10;;
12120;SDS011;6124;59.460;17.908;2023-04-03T10:03:23;3.90;;;1.47;;
12120;SDS011;6124;59.460;17.908;2023-04-03T10:05:52;4.77;;;1.50;;
12120;SDS011;6124;59.460;17.908;2023-04-03T10:08:22;4.40;;;1.50;;
12120;SDS011;6124;59.460;17.908;2023-04-03T10:11:05;5.20;;;1.50;;
12120;SDS011;6124;59.460;17.908;2023-04-03T10:13:33;3.17;;;0.93;;
12120;SDS011;6124;59.460;17.908;2023-04-03T10:16:02;4.53;;;1.70;;
12120;SDS011;6124;59.460;17.908;2023-04-03T10:18:32;2.97;;;1.20;;
12120;SDS011;6124;59.460;17.908;2023-04-03T10:21:04;6.13;;;1.63;;
12120;SDS011;6124;59.460;17.908;2023-04-03T10:23:35;3.30;;;1.20;;
12120;SDS011;6124;59.460;17.908;2023-04-03T10:26:08;6.13;;;1.60;;
12120;SDS011;6124;59.460;17.908;2023-04-03T10:28:40;2.97;;;1.40;;
12120;SDS011;6124;59.460;17.908;2023-04-03T10:31:12;4.30;;;1.37;;
12120;SDS011;6124;59.460;17.908;2023-04-03T10:33:50;4.67;;;1.50;;
12120;SDS011;6124;59.460;17.908;2023-04-03T10:36:25;5.00;;;1.50;;
12120;SDS011;6124;59.460;17.908;2023-04-03T10:38:57;8.47;;;1.70;;
12120;SDS011;6124;59.460;17.908;2023-04-03T10:41:31;7.73;;;2.07;;
12120;SDS011;6124;59.460;17.908;2023-04-03T10:44:04;5.53;;;1.70;;
12120;SDS011;6124;59.460;17.908;2023-04-03T10:46:37;5.07;;;1.37;;
12120;SDS011;6124;59.460;17.908;2023-04-03T10:49:10;2.50;;;1.10;;
12120;SDS011;6124;59.460;17.908;2023-04-03T10:51:43;4.47;;;1.60;;
12120;SDS011;6124;59.460;17.908;2023-04-03T10:54:13;8.43;;;1.73;;
12120;SDS011;6124;59.460;17.908;2023-04-03T10:56:44;3.53;;;1.30;;
12120;SDS011;6124;59.460;17.908;2023-04-03T10:59:18;4.13;;;1.40;;
12120;SDS011;6124;59.460;17.908;2023-04-03T11:01:48;3.10;;;1.30;;
12120;SDS011;6124;59.460;17.908;2023-04-03T11:04:18;3.37;;;1.30;;
12120;SDS011;6124;59.460;17.908;2023-04-03T11:06:48;4.97;;;1.40;;
12120;SDS011;6124;59.460;17.908;2023-04-03T11:09:21;5.30;;;1.23;;
12120;SDS011;6124;59.460;17.908;2023-04-03T11:11:51;1.67;;;1.00;;
12120;SDS011;6124;59.460;17.908;2023-04-03T11:14:21;3.10;;;1.10;;
12120;SDS011;6124;59.460;17.908;2023-04-03T11:16:50;4.00;;;1.13;;
12120;SDS011;6124;59.460;17.908;2023-04-03T11:19:19;5.67;;;1.30;;
12120;SDS011;6124;59.460;17.908;2023-04-03T11:21:52;7.30;;;1.40;;
12120;SDS011;6124;59.460;17.908;2023-04-03T11:24:22;6.67;;;1.50;;
12120;SDS011;6124;59.460;17.908;2023-04-03T11:26:51;5.60;;;1.60;;
12120;SDS011;6124;59.460;17.908;2023-04-03T11:29:21;2.53;;;1.20;;
12120;SDS011;6124;59.460;17.908;2023-04-03T11:31:56;5.87;;;1.20;;
12120;SDS011;6124;59.460;17.908;2023-04-03T11:34:31;5.50;;;1.10;;
12120;SDS011;6124;59.460;17.908;2023-04-03T11:37:04;4.77;;;1.30;;
12120;SDS011;6124;59.460;17.908;2023-04-03T11:39:32;5.90;;;1.30;;
12120;SDS011;6124;59.460;17.908;2023-04-03T11:42:13;4.20;;;1.10;;
12120;SDS011;6124;59.460;17.908;2023-04-03T11:44:41;3.00;;;1.13;;
12120;SDS011;6124;59.460;17.908;2023-04-03T11:47:09;1.53;;;1.07;;
12120;SDS011;6124;59.460;17.908;2023-04-03T11:49:56;4.50;;;1.10;;
12120;SDS011;6124;59.460;17.908;2023-04-03T11:58:21;2.57;;;1.00;;
12120;SDS011;6124;59.460;17.908;2023-04-03T12:00:58;1.80;;;1.20;;
12120;SDS011;6124;59.460;17.908;2023-04-03T12:03:30;3.80;;;1.20;;
12120;SDS011;6124;59.460;17.908;2023-04-03T12:05:58;4.17;;;1.17;;
12120;SDS011;6124;59.460;17.908;2023-04-03T12:08:45;2.77;;;1.10;;
12120;SDS011;6124;59.460;17.908;2023-04-03T12:11:19;2.63;;;1.20;;
12120;SDS011;6124;59.460;17.908;2023-04-03T12:14:04;4.30;;;1.23;;
12120;SDS011;6124;59.460;17.908;2023-04-03T12:16:32;3.13;;;1.03;;
12120;SDS011;6124;59.460;17.908;2023-04-03T12:19:01;1.77;;;0.70;;
12120;SDS011;6124;59.460;17.908;2023-04-03T12:24:23;4.77;;;1.70;;
12120;SDS011;6124;59.460;17.908;2023-04-03T12:27:01;3.43;;;1.13;;
12120;SDS011;6124;59.460;17.908;2023-04-03T12:29:33;2.10;;;1.17;;
12120;SDS011;6124;59.460;17.908;2023-04-03T12:32:09;2.40;;;1.10;;
12120;SDS011;6124;59.460;17.908;2023-04-03T12:34:50;2.50;;;1.10;;
12120;SDS011;6124;59.460;17.908;2023-04-03T12:37:28;2.47;;;1.07;;
12120;SDS011;6124;59.460;17.908;2023-04-03T12:40:05;4.20;;;0.90;;
12120;SDS011;6124;59.460;17.908;2023-04-03T12:42:40;2.37;;;1.20;;
12120;SDS011;6124;59.460;17.908;2023-04-03T12:45:14;3.67;;;1.20;;
12120;SDS011;6124;59.460;17.908;2023-04-03T12:47:44;9.27;;;1.67;;
12120;SDS011;6124;59.460;17.908;2023-04-03T12:50:19;6.60;;;1.47;;
12120;SDS011;6124;59.460;17.908;2023-04-03T12:52:50;3.60;;;1.00;;
12120;SDS011;6124;59.460;17.908;2023-04-03T12:55:19;5.63;;;1.20;;
12120;SDS011;6124;59.460;17.908;2023-04-03T12:57:47;5.40;;;1.30;;
12120;SDS011;6124;59.460;17.908;2023-04-03T13:00:20;3.37;;;1.07;;
12120;SDS011;6124;59.460;17.908;2023-04-03T13:02:48;3.97;;;1.00;;
12120;SDS011;6124;59.460;17.908;2023-04-03T13:05:16;4.03;;;1.20;;
12120;SDS011;6124;59.460;17.908;2023-04-03T13:07:43;2.77;;;1.27;;
12120;SDS011;6124;59.460;17.908;2023-04-03T13:10:15;1.17;;;0.83;;
12120;SDS011;6124;59.460;17.908;2023-04-03T13:12:46;3.53;;;0.90;;
12120;SDS011;6124;59.460;17.908;2023-04-03T13:15:15;2.83;;;0.80;;
12120;SDS011;6124;59.460;17.908;2023-04-03T13:17:44;2.17;;;1.00;;
12120;SDS011;6124;59.460;17.908;2023-04-03T13:20:15;1.60;;;0.80;;
12120;SDS011;6124;59.460;17.908;2023-04-03T13:22:47;3.10;;;0.97;;
12120;SDS011;6124;59.460;17.908;2023-04-03T13:25:15;2.97;;;0.90;;
12120;SDS011;6124;59.460;17.908;2023-04-03T13:27:43;2.97;;;0.90;;
12120;SDS011;6124;59.460;17.908;2023-04-03T13:30:21;8.53;;;1.50;;
12120;SDS011;6124;59.460;17.908;2023-04-03T13:32:51;4.63;;;1.10;;
12120;SDS011;6124;59.460;17.908;2023-04-03T13:35:30;4.80;;;1.13;;
12120;SDS011;6124;59.460;17.908;2023-04-03T13:37:58;2.90;;;1.27;;
12120;SDS011;6124;59.460;17.908;2023-04-03T13:40:25;2.77;;;1.07;;
12120;SDS011;6124;59.460;17.908;2023-04-03T13:43:04;2.80;;;1.57;;
12120;SDS011;6124;59.460;17.908;2023-04-03T13:45:32;3.60;;;1.40;;
12120;SDS011;6124;59.460;17.908;2023-04-03T13:48:14;2.97;;;0.90;;
12120;SDS011;6124;59.460;17.908;2023-04-03T13:50:59;2.13;;;1.00;;
12120;SDS011;6124;59.460;17.908;2023-04-03T13:53:27;3.43;;;1.10;;
12120;SDS011;6124;59.460;17.908;2023-04-03T13:55:56;1.70;;;0.90;;
12120;SDS011;6124;59.460;17.908;2023-04-03T13:58:25;3.97;;;1.20;;
12120;SDS011;6124;59.460;17.908;2023-04-03T14:00:53;6.27;;;1.20;;
12120;SDS011;6124;59.460;17.908;2023-04-03T14:03:23;2.73;;;1.10;;
12120;SDS011;6124;59.460;17.908;2023-04-03T14:05:51;3.10;;;1.20;;
12120;SDS011;6124;59.460;17.908;2023-04-03T14:08:18;4.93;;;1.13;;
12120;SDS011;6124;59.460;17.908;2023-04-03T14:10:46;4.90;;;1.30;;
12120;SDS011;6124;59.460;17.908;2023-04-03T14:13:15;1.90;;;1.20;;
12120;SDS011;6124;59.460;17.908;2023-04-03T14:15:43;2.07;;;0.87;;
12120;SDS011;6124;59.460;17.908;2023-04-03T14:18:13;4.70;;;1.07;;
12120;SDS011;6124;59.460;17.908;2023-04-03T14:20:42;1.57;;;0.97;;
12120;SDS011;6124;59.460;17.908;2023-04-03T14:23:10;3.60;;;1.27;;
12120;SDS011;6124;59.460;17.908;2023-04-03T14:25:37;7.17;;;1.50;;
12120;SDS011;6124;59.460;17.908;2023-04-03T14:28:12;3.10;;;1.13;;
12120;SDS011;6124;59.460;17.908;2023-04-03T14:30:40;8.13;;;1.40;;
12120;SDS011;6124;59.460;17.908;2023-04-03T14:33:09;5.57;;;1.17;;
12120;SDS011;6124;59.460;17.908;2023-04-03T14:35:37;3.77;;;0.90;;
12120;SDS011;6124;59.460;17.908;2023-04-03T14:38:09;1.93;;;0.90;;
12120;SDS011;6124;59.460;17.908;2023-04-03T14:40:40;1.93;;;0.83;;
12120;SDS011;6124;59.460;17.908;2023-04-03T14:43:09;2.40;;;1.00;;
12120;SDS011;6124;59.460;17.908;2023-04-03T14:45:37;3.40;;;1.00;;
12120;SDS011;6124;59.460;17.908;2023-04-03T14:48:04;5.53;;;1.30;;
12120;SDS011;6124;59.460;17.908;2023-04-03T14:50:33;2.63;;;0.83;;
12120;SDS011;6124;59.460;17.908;2023-04-03T14:53:00;4.07;;;1.10;;
12120;SDS011;6124;59.460;17.908;2023-04-03T14:55:29;3.03;;;1.17;;
12120;SDS011;6124;59.460;17.908;2023-04-03T14:57:57;6.93;;;1.00;;
12120;SDS011;6124;59.460;17.908;2023-04-03T15:00:24;3.77;;;0.97;;
12120;SDS011;6124;59.460;17.908;2023-04-03T15:02:51;2.27;;;0.93;;
12120;SDS011;6124;59.460;17.908;2023-04-03T15:05:19;1.43;;;0.90;;
12120;SDS011;6124;59.460;17.908;2023-04-03T15:07:46;3.13;;;1.00;;
12120;SDS011;6124;59.460;17.908;2023-04-03T15:10:16;4.20;;;1.13;;
12120;SDS011;6124;59.460;17.908;2023-04-03T15:12:44;3.80;;;1.13;;